createdAt,value
2019-04-20T00:02:29.538Z,13.75
2019-04-20T00:06:46.737Z,13.55
2019-04-20T00:11:01.510Z,13.23
2019-04-20T00:15:09.344Z,13.12
2019-04-20T00:19:24.331Z,13.04
2019-04-20T00:23:47.742Z,12.91
2019-04-20T00:28:31.616Z,12.93
2019-04-20T00:32:41.508Z,12.58
2019-04-20T00:36:41.160Z,12.53
2019-04-20T00:40:59.411Z,13.05
2019-04-20T00:45:30.164Z,12.76
2019-04-20T00:49:52.337Z,12.29
2019-04-20T00:58:18.512Z,12.22
2019-04-20T01:02:32.627Z,11.96
2019-04-20T01:07:11.640Z,12.46
2019-04-20T01:11:08.114Z,12.46
2019-04-20T01:15:31.937Z,12.05
2019-04-20T01:19:35.471Z,11.54
2019-04-20T01:23:48.961Z,11.67
2019-04-20T01:28:24.283Z,11.67
2019-04-20T01:32:23.378Z,11.27
2019-04-20T01:36:46.144Z,11.96
2019-04-20T01:40:38.444Z,11.83
2019-04-20T01:44:47.311Z,11.34
2019-04-20T01:49:15.654Z,10.44
2019-04-20T02:02:43.804Z,10.37
2019-04-20T02:11:06.221Z,10.17
2019-04-20T02:15:26.174Z,9.93
2019-04-20T02:19:41.582Z,9.90
2019-04-20T02:23:50.978Z,10.11
2019-04-20T02:28:06.453Z,9.62
2019-04-20T02:33:30.012Z,9.69
2019-04-20T02:38:08.395Z,9.38
2019-04-20T02:41:59.748Z,9.19
2019-04-20T02:46:31.787Z,9.66
2019-04-20T02:55:15.205Z,9.50
2019-04-20T03:03:20.512Z,9.14
2019-04-20T03:07:34.353Z,9.40
2019-04-20T03:12:05.017Z,8.74
2019-04-20T03:20:32.270Z,8.47
2019-04-20T03:24:43.666Z,8.47
2019-04-20T03:33:23.187Z,8.80
2019-04-20T03:37:26.718Z,8.71
2019-04-20T03:41:25.379Z,8.74
2019-04-20T03:45:39.380Z,8.67
2019-04-20T03:54:30.649Z,8.79
2019-04-20T03:59:17.399Z,8.91
2019-04-20T04:08:04.020Z,8.59
2019-04-20T04:12:54.862Z,8.43
2019-04-20T04:17:02.617Z,8.48
2019-04-20T04:21:20.309Z,8.58
2019-04-20T04:26:22.475Z,8.66
2019-04-20T04:30:16.978Z,8.52
2019-04-20T04:34:34.712Z,8.44
2019-04-20T04:38:51.793Z,8.48
2019-04-20T04:43:00.759Z,8.61
2019-04-20T04:46:59.380Z,8.83
2019-04-20T04:51:33.233Z,9.04
2019-04-20T04:55:50.096Z,9.30
2019-04-20T05:05:04.541Z,9.31
2019-04-20T05:09:00.860Z,9.19
2019-04-20T05:13:09.425Z,9.57
2019-04-20T05:17:33.972Z,9.16
2019-04-20T05:22:14.901Z,9.58
2019-04-20T05:36:10.018Z,10.00
2019-04-20T05:40:25.066Z,10.24
2019-04-20T05:44:46.049Z,10.35
2019-04-20T05:49:00.351Z,10.51
2019-04-20T05:53:24.101Z,10.89
2019-04-20T05:57:54.485Z,11.12
2019-04-20T06:02:07.517Z,10.95
2019-04-20T06:06:13.860Z,11.44
2019-04-20T06:10:45.239Z,11.72
2019-04-20T06:15:02.688Z,11.62
2019-04-20T06:24:11.843Z,12.31
2019-04-20T06:28:19.738Z,12.63
2019-04-20T06:33:17.268Z,12.94
2019-04-20T06:37:39.157Z,13.02
2019-04-20T06:46:15.231Z,13.70
2019-04-20T06:54:58.155Z,14.30
2019-04-20T06:59:20.041Z,14.64
2019-04-20T07:03:47.122Z,14.74
2019-04-20T07:07:47.600Z,15.04
2019-04-20T07:11:57.046Z,15.31
2019-04-20T07:20:56.801Z,15.80
2019-04-20T07:25:21.458Z,15.63
2019-04-20T07:29:26.970Z,16.32
2019-04-20T07:34:04.771Z,16.61
2019-04-20T07:38:31.313Z,16.65
2019-04-20T07:42:51.835Z,16.80
2019-04-20T07:50:55.524Z,17.56
2019-04-20T07:55:33.004Z,17.45
2019-04-20T07:59:25.293Z,18.10
2019-04-20T08:08:02.918Z,18.13
2019-04-20T08:13:07.580Z,18.90
2019-04-20T08:17:48.474Z,18.57
2019-04-20T08:26:20.184Z,19.66
2019-04-20T08:35:56.598Z,19.97
2019-04-20T08:40:01.537Z,20.16
2019-04-20T08:44:35.325Z,20.46
2019-04-20T08:48:46.098Z,20.86
2019-04-20T08:57:15.738Z,21.15
2019-04-20T09:01:46.756Z,21.32
2019-04-20T09:06:01.011Z,21.27
2019-04-20T09:10:24.388Z,21.53
2019-04-20T09:14:20.918Z,21.71
2019-04-20T09:18:41.824Z,22.04
2019-04-20T09:22:50.653Z,21.63
2019-04-20T09:27:04.785Z,22.07
2019-04-20T09:31:39.330Z,21.35
2019-04-20T09:35:57.711Z,21.64
2019-04-20T09:40:40.224Z,22.67
2019-04-20T09:44:48.841Z,22.46
2019-04-20T09:48:58.876Z,23.11
2019-04-20T09:53:17.081Z,23.05
2019-04-20T09:57:25.508Z,23.73
2019-04-20T10:01:27.224Z,23.59
2019-04-20T10:05:20.677Z,23.38
2019-04-20T10:09:32.591Z,23.46
2019-04-20T10:13:34.346Z,23.30
2019-04-20T10:17:39.573Z,23.98
2019-04-20T10:21:45.706Z,24.13
2019-04-20T10:25:51.201Z,24.34
2019-04-20T10:30:00.696Z,24.17
2019-04-20T10:34:04.671Z,24.04
2019-04-20T10:38:21.448Z,24.64
2019-04-20T10:42:27.796Z,24.22
2019-04-20T10:46:33.365Z,24.22
2019-04-20T10:50:43.086Z,24.62
2019-04-20T10:54:48.289Z,25.05
2019-04-20T10:58:53.852Z,25.54
2019-04-20T11:02:59.666Z,24.64
2019-04-20T11:07:04.902Z,25.33
2019-04-20T11:11:18.010Z,24.88
2019-04-20T11:15:18.682Z,25.60
2019-04-20T11:19:25.186Z,25.47
2019-04-20T11:23:31.998Z,26.10
2019-04-20T11:27:38.366Z,25.64
2019-04-20T11:31:47.756Z,26.37
2019-04-20T11:35:51.542Z,26.41
2019-04-20T11:39:57.066Z,25.14
2019-04-20T11:44:02.247Z,25.64
2019-04-20T11:48:07.560Z,24.65
2019-04-20T11:52:13.648Z,25.83
2019-04-20T11:56:25.759Z,25.60
2019-04-20T12:00:45.822Z,26.33
2019-04-20T12:05:08.859Z,25.76
2019-04-20T12:09:08.225Z,25.78
2019-04-20T12:13:14.725Z,27.24
2019-04-20T12:17:19.925Z,25.66
2019-04-20T12:21:26.414Z,26.25
2019-04-20T12:25:34.272Z,25.88
2019-04-20T12:29:38.720Z,26.32
2019-04-20T12:33:44.310Z,26.18
2019-04-20T12:37:51.356Z,24.87
2019-04-20T12:42:00.746Z,24.69
2019-04-20T12:46:03.441Z,26.28
2019-04-20T12:50:11.836Z,26.76
2019-04-20T12:54:17.047Z,26.11
2019-04-20T12:58:22.889Z,27.11
2019-04-20T13:02:29.322Z,25.84
2019-04-20T13:06:37.130Z,28.18
2019-04-20T13:10:44.472Z,27.61
2019-04-20T13:15:44.736Z,28.24
2019-04-20T13:19:50.981Z,26.54
2019-04-20T13:23:56.548Z,27.85
2019-04-20T13:28:03.078Z,27.67
2019-04-20T13:32:09.662Z,28.20
2019-04-20T13:36:16.503Z,27.73
2019-04-20T13:40:23.568Z,27.55
2019-04-20T13:44:28.950Z,27.20
2019-04-20T13:48:35.113Z,26.98
2019-04-20T13:52:40.644Z,27.81
2019-04-20T13:56:48.011Z,26.96
2019-04-20T14:01:02.970Z,27.44
2019-04-20T14:05:08.716Z,27.96
2019-04-20T14:09:15.080Z,27.87
2019-04-20T14:13:22.203Z,28.23
2019-04-20T14:17:27.158Z,28.02
2019-04-20T14:21:32.339Z,29.24
2019-04-20T14:25:38.660Z,28.47
2019-04-20T14:29:46.244Z,28.79
2019-04-20T14:33:51.204Z,27.57
2019-04-20T14:37:57.555Z,28.54
2019-04-20T14:42:02.908Z,27.51
2019-04-20T14:46:08.510Z,28.16
2019-04-20T14:50:14.248Z,28.38
2019-04-20T14:54:19.342Z,28.11
2019-04-20T14:58:43.383Z,28.03
2019-04-20T15:02:50.007Z,28.26
2019-04-20T15:06:55.116Z,30.45
2019-04-20T15:11:01.029Z,30.45
2019-04-20T15:15:06.413Z,28.98
2019-04-20T15:19:37.177Z,29.61
2019-04-20T15:23:43.737Z,29.06
2019-04-20T15:27:50.065Z,30.26
2019-04-20T15:31:56.520Z,28.36
2019-04-20T15:36:02.216Z,27.86
2019-04-20T15:40:08.848Z,27.79
2019-04-20T15:44:15.384Z,28.24
2019-04-20T15:48:21.874Z,27.74
2019-04-20T15:52:31.886Z,27.74
2019-04-20T15:56:35.366Z,28.35
2019-04-20T16:00:40.607Z,29.83
2019-04-20T16:04:52.590Z,27.62
2019-04-20T16:09:00.009Z,28.10
2019-04-20T16:13:19.366Z,27.74
2019-04-20T16:17:15.067Z,30.55
2019-04-20T16:21:24.369Z,30.05
2019-04-20T16:25:43.744Z,29.03
2019-04-20T16:29:49.547Z,27.45
2019-04-20T16:33:56.871Z,27.80
2019-04-20T16:38:02.542Z,28.91
2019-04-20T16:42:09.488Z,29.29
2019-04-20T16:46:34.473Z,28.96
2019-04-20T16:50:40.660Z,28.07
2019-04-20T16:54:46.073Z,28.11
2019-04-20T16:58:54.629Z,28.41
2019-04-20T17:02:58.518Z,27.81
2019-04-20T17:07:21.435Z,29.11
2019-04-20T17:11:27.730Z,29.16
2019-04-20T17:15:33.851Z,27.66
2019-04-20T17:19:39.867Z,27.74
2019-04-20T17:23:46.881Z,28.81
2019-04-20T17:27:59.447Z,28.21
2019-04-20T17:32:09.815Z,27.90
2019-04-20T17:36:52.734Z,27.50
2019-04-20T17:41:13.741Z,26.13
2019-04-20T17:45:14.082Z,26.94
2019-04-20T17:49:29.563Z,25.41
2019-04-20T17:53:58.555Z,25.47
2019-04-20T17:58:14.724Z,24.84
2019-04-20T18:02:53.470Z,24.28
2019-04-20T18:06:53.726Z,24.07
2019-04-20T18:10:58.552Z,24.22
2019-04-20T18:15:12.142Z,23.70
2019-04-20T18:19:18.981Z,23.45
2019-04-20T18:23:26.973Z,23.05
2019-04-20T18:27:54.972Z,22.31
2019-04-20T18:32:21.551Z,22.32
2019-04-20T18:36:31.215Z,22.06
2019-04-20T18:40:45.707Z,21.57
2019-04-20T18:45:04.209Z,21.63
2019-04-20T18:49:05.387Z,21.15
2019-04-20T18:52:56.179Z,21.05
2019-04-20T18:57:01.736Z,21.00
2019-04-20T19:01:07.551Z,20.68
2019-04-20T19:05:13.701Z,20.30
2019-04-20T19:09:25.702Z,20.31
2019-04-20T19:13:37.629Z,20.41
2019-04-20T19:18:04.232Z,20.25
2019-04-20T19:21:56.580Z,20.02
2019-04-20T19:26:08.447Z,19.93
2019-04-20T19:30:21.220Z,19.91
2019-04-20T19:34:35.377Z,19.91
2019-04-20T19:38:30.227Z,19.78
2019-04-20T19:42:42.263Z,19.69
2019-04-20T19:47:00.841Z,19.65
2019-04-20T19:51:06.911Z,19.49
2019-04-20T19:55:10.581Z,19.36
2019-04-20T19:59:12.071Z,19.10
2019-04-20T20:03:05.828Z,19.09
2019-04-20T20:07:21.949Z,18.82
2019-04-20T20:11:26.464Z,18.84
2019-04-20T20:15:32.013Z,18.70
2019-04-20T20:20:03.701Z,18.62
2019-04-20T20:23:41.948Z,18.69
2019-04-20T20:27:54.720Z,18.68
2019-04-20T20:32:05.124Z,18.52
2019-04-20T20:36:09.519Z,18.64
2019-04-20T20:40:21.038Z,18.50
2019-04-20T20:44:27.663Z,18.52
2019-04-20T20:48:36.898Z,18.51
2019-04-20T20:52:46.524Z,18.33
2019-04-20T20:56:46.756Z,18.22
2019-04-20T21:00:54.350Z,18.16
2019-04-20T21:04:51.444Z,18.12
2019-04-20T21:08:59.942Z,17.99
2019-04-20T21:13:07.336Z,17.96
2019-04-20T21:17:17.619Z,17.83
2019-04-20T21:21:32.338Z,17.75
2019-04-20T21:25:34.517Z,17.70
2019-04-20T21:29:41.398Z,17.70
2019-04-20T21:33:42.841Z,17.72
2019-04-20T21:37:55.473Z,17.55
2019-04-20T21:42:04.180Z,17.57
2019-04-20T21:46:06.325Z,17.36
2019-04-20T21:50:26.580Z,17.40
2019-04-20T21:54:16.162Z,17.28
2019-04-20T21:58:27.728Z,17.15
2019-04-20T22:02:37.742Z,17.10
2019-04-20T22:06:38.230Z,17.07
2019-04-20T22:10:44.846Z,16.89
2019-04-20T22:15:00.002Z,16.82
2019-04-20T22:19:14.523Z,16.71
2019-04-20T22:23:15.783Z,16.73
2019-04-20T22:27:20.096Z,16.62
2019-04-20T22:31:20.232Z,16.42
2019-04-20T22:35:26.139Z,16.41
2019-04-20T22:39:41.351Z,16.27
2019-04-20T22:43:42.184Z,16.30
2019-04-20T22:47:48.142Z,16.20
2019-04-20T22:52:05.297Z,16.01
2019-04-20T22:56:19.759Z,16.02
2019-04-20T23:00:15.959Z,15.93
2019-04-20T23:04:19.177Z,15.74
2019-04-20T23:08:24.784Z,15.81
2019-04-20T23:12:30.919Z,15.60
2019-04-20T23:16:43.189Z,15.53
2019-04-20T23:20:45.912Z,15.53
2019-04-20T23:24:53.299Z,15.42
2019-04-20T23:29:04.979Z,15.35
2019-04-20T23:33:12.319Z,15.21
2019-04-20T23:37:24.575Z,15.16
2019-04-20T23:41:23.897Z,15.13
2019-04-20T23:46:01.159Z,15.01
2019-04-20T23:50:37.331Z,14.91
2019-04-20T23:54:29.630Z,14.87
2019-04-20T23:58:38.205Z,14.83
